Time;durP1;ratioP1;P1;durP2;ratioP2;P2;SDS_P1;SDS_P2;PMS_P1;PMS_P2;Temp;Humidity;BMP_temperature;BMP_pressure;BME280_temperature;BME280_humidity;BME280_pressure;Samples;Min_cycle;Max_cycle;Signal;HPM_P1;HPM_P2
2021/05/16 00:01:27;;;;;;;16.48;12.53;;;;;;;12.88;78.95;99962.87;1635364;87;21165;-52
2021/05/16 00:03:58;;;;;;;15.72;11.97;;;;;;;12.92;78.72;99961.16;1636201;87;21667;-52
2021/05/16 00:06:26;;;;;;;17.27;12.55;;;;;;;12.90;78.61;99964.22;1636384;87;21009;-53
2021/05/16 00:08:53;;;;;;;13.70;11.73;;;;;;;12.89;78.59;99961.73;1636402;87;21012;-52
2021/05/16 00:11:20;;;;;;;18.60;13.98;;;;;;;12.86;78.61;99959.58;1636547;87;21572;-52
2021/05/16 00:13:48;;;;;;;16.50;11.65;;;;;;;12.83;78.80;99967.88;1636468;87;21093;-53
2021/05/16 00:16:15;;;;;;;19.37;13.32;;;;;;;12.79;78.85;99958.60;1636424;87;21049;-52
2021/05/16 00:18:42;;;;;;;14.70;12.78;;;;;;;12.72;79.00;99960.92;1636345;87;21041;-53
2021/05/16 00:21:09;;;;;;;17.17;13.03;;;;;;;12.63;79.32;99957.99;1636375;87;21009;-52
2021/05/16 00:23:35;;;;;;;16.70;13.32;;;;;;;12.58;79.55;99958.09;1636057;87;21074;-53
2021/05/16 00:26:02;;;;;;;17.80;14.50;;;;;;;12.51;79.79;99959.83;1635919;87;21110;-53
2021/05/16 00:28:28;;;;;;;21.30;13.93;;;;;;;12.44;80.22;99967.08;1636158;87;21025;-52
2021/05/16 00:30:55;;;;;;;15.95;14.00;;;;;;;12.39;80.38;99967.73;1635894;87;20977;-53
2021/05/16 00:33:22;;;;;;;19.70;14.40;;;;;;;12.33;80.68;99971.12;1636124;87;21032;-53
2021/05/16 00:35:49;;;;;;;17.60;13.05;;;;;;;12.28;80.90;99970.61;1635981;87;21009;-52
2021/05/16 00:38:15;;;;;;;17.98;14.83;;;;;;;12.26;81.08;99972.01;1636071;87;21122;-52
2021/05/16 00:40:42;;;;;;;20.88;14.33;;;;;;;12.22;81.18;99972.36;1636037;87;21070;-56
2021/05/16 00:43:10;;;;;;;18.98;13.93;;;;;;;12.19;81.42;99977.06;1636038;87;21048;-53
2021/05/16 00:45:36;;;;;;;19.32;15.65;;;;;;;12.10;81.52;99983.24;1636222;87;21040;-53
2021/05/16 00:48:06;;;;;;;32.28;19.62;;;;;;;12.03;81.87;99969.02;1636085;87;21008;-53
2021/05/16 00:50:37;;;;;;;26.42;18.52;;;;;;;11.99;82.21;99980.34;1636091;87;21117;-53
2021/05/16 00:53:04;;;;;;;24.27;15.95;;;;;;;11.98;82.40;99975.14;1636090;87;21001;-52
2021/05/16 00:55:31;;;;;;;18.48;15.48;;;;;;;11.95;82.61;99977.92;1636002;87;21100;-53
2021/05/16 00:57:58;;;;;;;21.70;17.62;;;;;;;11.91;82.68;99982.34;1635935;87;21078;-52
2021/05/16 01:00:28;;;;;;;17.67;14.95;;;;;;;11.83;82.94;99978.31;1635851;87;21017;-53
2021/05/16 01:02:57;;;;;;;16.82;15.03;;;;;;;11.81;83.23;99980.52;1635249;87;21086;-52
2021/05/16 01:05:24;;;;;;;16.52;14.50;;;;;;;11.78;83.36;99981.11;1635918;87;21001;-53
2021/05/16 01:07:50;;;;;;;25.40;18.62;;;;;;;11.76;83.50;99991.59;1635983;87;21037;-52
2021/05/16 01:10:18;;;;;;;19.98;17.20;;;;;;;11.75;83.74;99990.76;1636137;87;21668;-52
2021/05/16 01:12:49;;;;;;;23.95;17.40;;;;;;;11.76;83.89;99992.41;1635951;87;21058;-52
2021/05/16 01:15:20;;;;;;;21.62;17.27;;;;;;;11.73;83.81;99993.00;1635971;87;21694;-52
2021/05/16 01:17:47;;;;;;;20.57;15.48;;;;;;;11.69;83.89;99994.69;1635894;87;21036;-53
2021/05/16 01:20:26;;;;;;;19.25;17.20;;;;;;;11.65;84.04;99993.63;1635934;87;20965;-52
2021/05/16 01:22:56;;;;;;;22.02;16.75;;;;;;;11.62;84.20;99994.75;1610157;88;20997;-53
2021/05/16 01:25:23;;;;;;;22.87;16.42;;;;;;;11.58;84.50;99982.14;1608177;88;21048;-53
2021/05/16 01:27:49;;;;;;;26.27;17.95;;;;;;;11.57;84.71;99987.38;1629841;88;21709;-52
2021/05/16 01:30:19;;;;;;;22.13;17.17;;;;;;;11.53;84.82;99987.16;1630041;87;21090;-52
2021/05/16 01:32:46;;;;;;;22.75;16.75;;;;;;;11.51;84.96;99987.17;1630063;88;21024;-53
2021/05/16 01:35:13;;;;;;;29.52;17.32;;;;;;;11.48;85.08;99998.75;1629983;88;21016;-52
2021/05/16 01:37:40;;;;;;;23.67;18.10;;;;;;;11.46;85.19;100003.17;1629868;88;21057;-52
2021/05/16 01:40:09;;;;;;;27.62;17.67;;;;;;;11.43;85.40;100002.35;1629797;88;21793;-52
2021/05/16 01:42:39;;;;;;;22.87;15.58;;;;;;;11.40;85.44;99995.53;1608163;88;21069;-52
2021/05/16 01:45:11;;;;;;;25.65;16.70;;;;;;;11.40;85.69;99995.53;1629900;87;21053;-52
2021/05/16 01:47:34;;;;;;;18.82;14.83;;;;;;;11.39;85.74;99989.75;1629693;87;21008;-52
2021/05/16 01:50:10;;;;;;;21.27;16.35;;;;;;;11.39;85.78;99992.50;1629932;87;21029;-52
2021/05/16 01:52:36;;;;;;;24.43;17.77;;;;;;;11.36;85.88;99988.97;1579134;90;21077;-52
2021/05/16 01:55:06;;;;;;;29.95;21.55;;;;;;;11.36;86.19;100002.71;1588676;90;21054;-52
2021/05/16 01:57:32;;;;;;;20.23;16.97;;;;;;;11.33;86.03;100003.30;1579097;90;21110;-52
2021/05/16 01:59:59;;;;;;;72.42;38.40;;;;;;;11.30;86.11;100001.09;1605306;89;22016;-52
2021/05/16 02:02:26;;;;;;;39.78;25.45;;;;;;;11.29;86.29;100008.26;1605516;89;21024;-52
2021/05/16 02:04:53;;;;;;;35.23;24.20;;;;;;;11.29;86.47;100011.85;1605371;89;21835;-53
2021/05/16 02:07:20;;;;;;;28.42;19.92;;;;;;;11.31;86.56;100006.87;1588718;90;21017;-53
2021/05/16 02:09:47;;;;;;;23.52;18.50;;;;;;;11.32;86.46;100003.59;1588862;90;21034;-52
2021/05/16 02:12:18;;;;;;;21.85;16.75;;;;;;;11.29;86.32;100013.76;1578861;90;21686;-52
2021/05/16 02:14:45;;;;;;;23.65;18.95;;;;;;;11.24;86.28;100025.09;1566079;90;21069;-52
2021/05/16 02:17:13;;;;;;;19.90;15.70;;;;;;;11.23;86.60;100024.81;1588786;90;21105;-52
2021/05/16 02:19:41;;;;;;;19.95;16.57;;;;;;;11.27;86.81;100024.23;1588708;90;21014;-53
2021/05/16 02:22:09;;;;;;;20.92;17.77;;;;;;;11.24;86.71;100028.38;1579112;89;21082;-52
2021/05/16 02:24:38;;;;;;;25.10;18.82;;;;;;;11.23;86.79;100026.73;1605411;89;21075;-53
2021/05/16 02:27:07;;;;;;;23.67;17.30;;;;;;;11.22;86.85;100030.61;1605555;89;20999;-53
2021/05/16 02:29:38;;;;;;;19.98;17.20;;;;;;;11.22;87.01;100023.73;1604100;89;21153;-53
2021/05/16 02:32:07;;;;;;;20.10;16.77;;;;;;;11.22;87.00;100020.42;1583610;89;21177;-53
2021/05/16 02:34:35;;;;;;;23.62;16.40;;;;;;;11.21;87.03;100021.52;1605698;89;21161;-52
2021/05/16 02:37:02;;;;;;;24.30;17.73;;;;;;;11.21;87.10;100033.89;1588793;90;22304;-53
2021/05/16 02:39:29;;;;;;;26.37;19.10;;;;;;;11.20;87.21;100028.67;1588990;90;21006;-52
2021/05/16 02:41:56;;;;;;;31.85;21.57;;;;;;;11.19;87.24;100031.19;1588976;90;21625;-52
2021/05/16 02:44:23;;;;;;;22.52;19.48;;;;;;;11.19;87.44;100038.86;1579002;90;21022;-52
2021/05/16 02:46:50;;;;;;;23.62;18.80;;;;;;;11.19;87.54;100038.05;1605340;89;21072;-53
2021/05/16 02:49:17;;;;;;;30.75;20.00;;;;;;;11.20;87.59;100040.52;1605533;89;21055;-52
2021/05/16 02:51:43;;;;;;;28.65;20.60;;;;;;;11.21;87.61;100047.63;1588910;90;21070;-52
2021/05/16 02:54:11;;;;;;;25.32;20.75;;;;;;;11.22;87.69;100050.66;1588913;90;22309;-52
2021/05/16 02:56:38;;;;;;;30.45;21.23;;;;;;;11.27;87.88;100051.16;1579022;90;21054;-52
2021/05/16 02:59:07;;;;;;;26.23;19.80;;;;;;;11.31;87.95;100050.86;1588899;90;21070;-52
2021/05/16 03:01:35;;;;;;;25.00;20.23;;;;;;;11.36;88.06;100050.83;1578922;90;21054;-52
2021/05/16 03:04:03;;;;;;;28.40;21.25;;;;;;;11.40;88.06;100045.02;1588821;90;21021;-52
2021/05/16 03:06:30;;;;;;;30.92;24.52;;;;;;;11.48;88.12;100039.44;1564696;90;21092;-53
2021/05/16 03:08:58;;;;;;;31.33;24.23;;;;;;;11.52;88.06;100039.13;1588758;90;21026;-53
2021/05/16 03:11:27;;;;;;;31.07;21.25;;;;;;;11.57;88.01;100047.89;1588684;90;21021;-53
2021/05/16 03:13:54;;;;;;;31.27;21.20;;;;;;;11.59;88.00;100044.31;1588669;90;21090;-53
2021/05/16 03:16:22;;;;;;;27.62;20.35;;;;;;;11.65;87.97;100052.77;1588711;90;21074;-53
2021/05/16 03:18:50;;;;;;;27.50;20.52;;;;;;;11.70;87.93;100049.14;1588804;90;21140;-53
2021/05/16 03:21:17;;;;;;;27.65;21.68;;;;;;;11.79;87.88;100045.20;1588851;90;21161;-53
2021/05/16 03:23:45;;;;;;;31.48;20.40;;;;;;;11.88;87.90;100050.34;1588747;89;21648;-53
2021/05/16 03:26:13;;;;;;;26.50;20.35;;;;;;;11.97;87.73;100049.18;1588692;90;21045;-53
2021/05/16 03:28:39;;;;;;;26.65;19.77;;;;;;;12.05;87.58;100047.17;1588999;90;21058;-53
2021/05/16 03:31:06;;;;;;;23.60;18.98;;;;;;;12.14;87.41;100052.28;1578985;90;21108;-53
2021/05/16 03:33:33;;;;;;;23.32;19.98;;;;;;;12.23;87.18;100044.19;1605462;89;21634;-53
2021/05/16 03:35:59;;;;;;;21.82;19.10;;;;;;;12.31;86.91;100053.19;1605456;89;21067;-53
2021/05/16 03:38:27;;;;;;;24.63;19.48;;;;;;;12.40;86.69;100048.68;1588867;90;21025;-53
2021/05/16 03:40:53;;;;;;;27.55;22.85;;;;;;;12.49;86.28;100050.76;1588815;90;21150;-53
2021/05/16 03:43:20;;;;;;;23.00;17.73;;;;;;;12.57;85.96;100052.86;1588996;90;21063;-53
2021/05/16 03:45:47;;;;;;;27.25;21.17;;;;;;;12.65;85.51;100059.66;1588856;90;21651;-53
2021/05/16 03:48:14;;;;;;;27.07;20.70;;;;;;;12.75;85.22;100065.03;1588865;90;21092;-53
2021/05/16 03:50:40;;;;;;;31.57;20.90;;;;;;;12.85;84.95;100059.94;1588857;90;21081;-53
2021/05/16 03:53:07;;;;;;;27.45;21.15;;;;;;;12.95;84.54;100070.81;1588774;90;21030;-52
2021/05/16 03:55:34;;;;;;;25.95;19.65;;;;;;;13.04;84.25;100073.14;1588798;90;21114;-53
2021/05/16 03:58:00;;;;;;;29.57;20.27;;;;;;;13.15;83.98;100071.06;1579132;90;21699;-53
2021/05/16 04:00:27;;;;;;;28.50;22.13;;;;;;;13.27;83.63;100078.86;1588910;90;21045;-53
2021/05/16 04:02:53;;;;;;;35.03;24.57;;;;;;;13.39;83.37;100074.29;1579018;90;21131;-53
2021/05/16 04:05:20;;;;;;;31.40;21.90;;;;;;;13.51;82.94;100086.25;1605473;89;21124;-53
2021/05/16 04:07:49;;;;;;;24.82;20.15;;;;;;;13.59;82.69;100089.68;1588855;90;21297;-53
2021/05/16 04:10:18;;;;;;;30.12;21.20;;;;;;;13.67;82.36;100081.30;1588807;90;21206;-53
2021/05/16 04:12:45;;;;;;;25.02;19.60;;;;;;;13.75;82.02;100089.69;1578984;90;21066;-53
2021/05/16 04:15:12;;;;;;;24.92;20.27;;;;;;;13.85;81.59;100090.08;1583852;89;21060;-53
2021/05/16 04:17:38;;;;;;;29.30;20.55;;;;;;;13.96;81.25;100086.55;1588904;90;21062;-53
2021/05/16 04:20:07;;;;;;;22.65;19.35;;;;;;;14.05;81.02;100089.45;1579143;90;21216;-53
2021/05/16 04:22:34;;;;;;;25.40;19.50;;;;;;;14.17;80.79;100087.83;1588527;89;21058;-53
2021/05/16 04:25:00;;;;;;;25.17;19.17;;;;;;;14.29;80.40;100090.62;1583970;90;21628;-53
2021/05/16 04:27:27;;;;;;;21.00;18.15;;;;;;;14.41;80.03;100088.17;1584158;90;21030;-53
2021/05/16 04:29:53;;;;;;;24.67;19.12;;;;;;;14.53;79.51;100073.83;1591063;89;21110;-53
2021/05/16 04:32:19;;;;;;;20.60;16.93;;;;;;;14.64;78.77;100078.63;1638419;87;21782;-53
2021/05/16 04:34:46;;;;;;;20.17;17.70;;;;;;;14.77;77.73;100081.11;1638318;87;20985;-53
2021/05/16 04:37:12;;;;;;;23.10;17.25;;;;;;;14.86;76.85;100078.69;1638281;87;21583;-53
2021/05/16 04:39:39;;;;;;;20.77;17.62;;;;;;;14.97;76.32;100078.45;1638294;87;21009;-53
2021/05/16 04:42:06;;;;;;;22.58;17.00;;;;;;;15.08;75.80;100077.66;1638373;87;20973;-53
2021/05/16 04:44:34;;;;;;;19.55;14.87;;;;;;;15.18;75.55;100080.19;1638324;87;21840;-53
2021/05/16 04:47:02;;;;;;;22.07;15.58;;;;;;;15.28;74.67;100072.21;1638328;87;20988;-53
2021/05/16 04:49:29;;;;;;;21.42;15.83;;;;;;;15.38;73.97;100074.72;1638308;87;21008;-53
2021/05/16 04:51:56;;;;;;;25.00;18.62;;;;;;;15.45;73.35;100069.56;1638441;87;21616;-53
2021/05/16 04:54:22;;;;;;;28.40;20.15;;;;;;;15.53;73.56;100068.81;1638307;87;21052;-53
2021/05/16 04:56:49;;;;;;;29.72;19.55;;;;;;;15.61;73.88;100067.22;1638184;87;21053;-53
2021/05/16 04:59:15;;;;;;;29.37;18.42;;;;;;;15.69;73.95;100076.16;1638307;87;21213;-53
2021/05/16 05:01:42;;;;;;;22.13;18.30;;;;;;;15.75;73.60;100069.92;1638383;87;21137;-53
2021/05/16 05:04:09;;;;;;;28.75;17.55;;;;;;;15.83;73.10;100075.28;1638237;87;21629;-53
2021/05/16 05:06:35;;;;;;;27.10;19.85;;;;;;;15.92;72.68;100066.46;1638508;87;21021;-53
2021/05/16 05:09:05;;;;;;;33.53;21.23;;;;;;;16.00;72.36;100066.24;1638320;87;21098;-53
2021/05/16 05:11:34;;;;;;;23.75;19.00;;;;;;;16.07;72.05;100061.06;1638206;87;21633;-53
2021/05/16 05:14:00;;;;;;;25.88;17.80;;;;;;;16.14;71.90;100067.53;1638451;87;21048;-53
2021/05/16 05:16:27;;;;;;;25.55;18.52;;;;;;;16.21;71.75;100063.73;1638409;87;21056;-53
2021/05/16 05:18:54;;;;;;;21.82;17.67;;;;;;;16.27;71.44;100058.28;1638292;87;21117;-54
2021/05/16 05:21:20;;;;;;;21.80;17.87;;;;;;;16.34;71.14;100053.67;1638599;87;21655;-53
2021/05/16 05:23:46;;;;;;;31.95;18.60;;;;;;;16.40;70.68;100060.69;1638298;86;20949;-53
2021/05/16 05:26:13;;;;;;;27.37;18.37;;;;;;;16.47;70.40;100055.48;1638150;87;21001;-53
2021/05/16 05:28:40;;;;;;;24.80;17.37;;;;;;;16.55;70.17;100058.86;1638142;87;21611;-53
2021/05/16 05:31:06;;;;;;;25.00;18.60;;;;;;;16.62;69.99;100050.63;1638372;87;20973;-53
2021/05/16 05:33:33;;;;;;;26.35;19.10;;;;;;;16.70;69.49;100052.02;1638325;87;21094;-53
2021/05/16 05:36:00;;;;;;;23.98;17.60;;;;;;;16.77;69.22;100047.39;1638126;87;21064;-53
2021/05/16 05:38:26;;;;;;;23.95;19.12;;;;;;;16.82;68.71;100048.63;1638356;87;21616;-53
2021/05/16 05:40:53;;;;;;;22.73;17.45;;;;;;;16.86;68.53;100039.08;1638131;87;21014;-53
2021/05/16 05:43:19;;;;;;;25.10;17.12;;;;;;;16.90;68.45;100043.70;1638241;87;21619;-53
2021/05/16 05:45:46;;;;;;;20.20;17.45;;;;;;;16.99;68.28;100039.55;1638115;87;21097;-53
2021/05/16 05:48:13;;;;;;;26.82;18.45;;;;;;;17.02;67.76;100038.88;1638105;87;21024;-53
2021/05/16 05:50:40;;;;;;;35.92;18.40;;;;;;;17.07;67.74;100041.48;1638285;87;21652;-53
2021/05/16 05:53:06;;;;;;;27.95;16.95;;;;;;;17.14;67.53;100043.77;1638342;87;21037;-53
2021/05/16 05:55:33;;;;;;;20.48;17.85;;;;;;;17.24;67.26;100038.46;1638298;87;21614;-53
2021/05/16 05:58:00;;;;;;;20.43;17.02;;;;;;;17.30;66.86;100033.56;1638319;87;21057;-53
2021/05/16 06:00:28;;;;;;;22.25;16.77;;;;;;;17.38;66.44;100031.35;1638228;87;21576;-51
2021/05/16 06:02:58;;;;;;;25.23;16.95;;;;;;;17.44;66.60;100036.38;1638496;87;21048;-51
2021/05/16 06:05:26;;;;;;;29.05;18.05;;;;;;;17.54;66.14;100040.78;1637893;87;21080;-53
2021/05/16 06:07:54;;;;;;;21.95;18.15;;;;;;;17.60;65.71;100035.31;1638099;87;21679;-53
2021/05/16 06:10:21;;;;;;;20.85;16.25;;;;;;;17.68;65.37;100047.53;1638297;87;21053;-52
2021/05/16 06:12:48;;;;;;;20.82;16.85;;;;;;;17.74;64.79;100045.39;1638042;87;21016;-52
2021/05/16 06:15:14;;;;;;;21.97;16.02;;;;;;;17.78;64.79;100045.78;1638373;87;21000;-52
2021/05/16 06:17:41;;;;;;;21.97;17.65;;;;;;;17.86;64.72;100053.87;1638287;87;20997;-52
2021/05/16 06:20:10;;;;;;;25.68;16.77;;;;;;;17.92;64.32;100051.17;1638160;87;21082;-52
2021/05/16 06:22:36;;;;;;;19.45;15.23;;;;;;;18.01;64.35;100057.28;1638419;87;21099;-52
2021/05/16 06:25:05;;;;;;;21.42;15.10;;;;;;;18.10;64.21;100054.68;1637893;87;21048;-51
2021/05/16 06:27:31;;;;;;;20.85;15.15;;;;;;;18.20;63.74;100043.77;1638442;87;21040;-52
2021/05/16 06:29:58;;;;;;;26.85;15.13;;;;;;;18.29;63.10;100047.89;1638395;87;21059;-52
2021/05/16 06:32:25;;;;;;;18.55;14.93;;;;;;;18.35;62.77;100049.91;1638249;87;21110;-52
2021/05/16 06:34:51;;;;;;;17.77;14.70;;;;;;;18.40;62.63;100055.29;1638436;87;21101;-52
2021/05/16 06:37:18;;;;;;;26.97;14.38;;;;;;;18.45;62.40;100053.72;1638158;87;21024;-52
2021/05/16 06:39:44;;;;;;;23.00;14.07;;;;;;;18.53;62.40;100056.20;1638275;87;21029;-52
2021/05/16 06:42:11;;;;;;;15.58;12.25;;;;;;;18.63;62.79;100052.47;1638200;87;20993;-52
2021/05/16 06:44:38;;;;;;;17.65;12.68;;;;;;;18.75;62.35;100056.48;1638246;87;21057;-52
2021/05/16 06:47:04;;;;;;;15.63;11.40;;;;;;;18.83;62.13;100044.45;1638190;87;21116;-52
2021/05/16 06:49:31;;;;;;;18.70;11.60;;;;;;;18.92;61.61;100051.38;1638168;87;20993;-52
2021/05/16 06:51:57;;;;;;;15.20;11.12;;;;;;;19.01;61.36;100048.55;1638047;87;21033;-52
2021/05/16 06:54:24;;;;;;;12.33;9.55;;;;;;;19.11;61.13;100048.14;1638322;87;21032;-52
2021/05/16 06:56:51;;;;;;;12.73;9.38;;;;;;;19.21;60.04;100049.11;1638107;87;20997;-52
2021/05/16 06:59:18;;;;;;;11.45;8.93;;;;;;;19.28;59.45;100043.00;1638347;87;21114;-52
2021/05/16 07:01:45;;;;;;;20.80;10.60;;;;;;;19.39;59.52;100041.98;1637979;87;21092;-52
2021/05/16 07:04:12;;;;;;;17.90;10.30;;;;;;;19.50;58.58;100045.97;1638311;87;21005;-52
2021/05/16 07:06:38;;;;;;;17.42;9.90;;;;;;;19.61;57.88;100049.14;1638041;87;21060;-52
2021/05/16 07:09:06;;;;;;;13.58;9.08;;;;;;;19.68;57.19;100054.97;1638178;87;21029;-53
2021/05/16 07:11:34;;;;;;;15.80;10.13;;;;;;;19.71;56.92;100050.69;1638169;87;21048;-52
2021/05/16 07:14:00;;;;;;;16.57;10.28;;;;;;;19.76;57.20;100047.66;1638060;87;21084;-52
2021/05/16 07:16:28;;;;;;;13.22;8.90;;;;;;;19.84;56.45;100048.17;1638311;87;21029;-52
2021/05/16 07:18:56;;;;;;;16.87;9.35;;;;;;;19.93;56.00;100058.63;1638189;87;20992;-52
2021/05/16 07:21:22;;;;;;;16.77;9.83;;;;;;;19.98;55.39;100053.44;1638412;87;21052;-53
2021/05/16 07:23:50;;;;;;;11.15;8.13;;;;;;;20.05;55.69;100056.46;1639186;87;21019;-52
2021/05/16 07:26:17;;;;;;;8.40;6.58;;;;;;;20.15;55.42;100059.38;1646527;86;21039;-52
2021/05/16 07:28:43;;;;;;;8.65;5.22;;;;;;;20.24;54.84;100053.09;1646534;86;21041;-52
2021/05/16 07:31:10;;;;;;;12.15;5.60;;;;;;;20.32;53.41;100049.39;1646362;87;21699;-52
2021/05/16 07:33:36;;;;;;;18.00;6.35;;;;;;;20.43;52.53;100053.91;1646390;86;21384;-53
2021/05/16 07:36:04;;;;;;;13.03;6.67;;;;;;;20.56;52.39;100054.70;1646360;86;21076;-53
2021/05/16 07:38:32;;;;;;;12.18;6.15;;;;;;;20.61;51.45;100061.45;1646719;87;21616;-52
2021/05/16 07:40:59;;;;;;;9.98;5.80;;;;;;;20.65;50.82;100062.98;1646498;87;21428;-53
2021/05/16 07:43:27;;;;;;;11.90;5.50;;;;;;;20.66;50.60;100057.61;1646319;87;21049;-55
2021/05/16 07:45:53;;;;;;;8.10;5.55;;;;;;;20.68;49.80;100056.72;1646078;87;21022;-52
2021/05/16 07:48:28;;;;;;;12.95;5.80;;;;;;;20.70;49.11;100059.95;1646391;87;22272;-52
2021/05/16 07:50:48;;;;;;;8.33;4.22;;;;;;;20.77;48.91;100065.76;1645436;87;21157;-52
2021/05/16 07:53:15;;;;;;;14.13;4.45;;;;;;;20.84;48.65;100063.78;1646425;86;21022;-52
2021/05/16 07:55:42;;;;;;;8.00;4.42;;;;;;;20.90;48.44;100049.80;1646347;86;20998;-52
2021/05/16 07:58:08;;;;;;;8.40;3.80;;;;;;;20.99;48.02;100053.28;1646427;87;21059;-52
2021/05/16 08:00:36;;;;;;;8.13;4.37;;;;;;;21.08;48.46;100043.93;1646424;86;21093;-52
2021/05/16 08:03:02;;;;;;;8.48;4.17;;;;;;;21.19;47.64;100040.30;1646371;86;20994;-52
2021/05/16 08:05:30;;;;;;;11.20;4.00;;;;;;;21.29;46.82;100038.98;1646422;86;21583;-53
2021/05/16 08:07:58;;;;;;;9.30;3.42;;;;;;;21.35;46.92;100040.95;1646350;86;21054;-52
2021/05/16 08:10:24;;;;;;;9.48;3.95;;;;;;;21.40;46.21;100038.67;1646480;87;21083;-52
2021/05/16 08:12:51;;;;;;;8.65;4.10;;;;;;;21.50;45.85;100039.34;1646360;87;21077;-52
2021/05/16 08:15:19;;;;;;;9.35;3.95;;;;;;;21.60;46.49;100039.45;1646403;87;21017;-52
2021/05/16 08:17:45;;;;;;;8.33;4.15;;;;;;;21.78;45.35;100040.73;1646407;86;22096;-51
2021/05/16 08:20:13;;;;;;;7.25;2.98;;;;;;;21.94;44.73;100034.35;1646280;87;20986;-52
2021/05/16 08:22:39;;;;;;;8.03;4.50;;;;;;;22.07;44.83;100033.87;1646422;87;20958;-52
2021/05/16 08:25:10;;;;;;;10.25;3.42;;;;;;;22.24;44.77;100037.49;1646352;87;21088;-52
2021/05/16 08:27:37;;;;;;;9.53;3.08;;;;;;;22.41;43.43;100034.94;1646476;87;21015;-52
2021/05/16 08:30:07;;;;;;;6.75;3.30;;;;;;;22.51;43.57;100039.17;1646642;87;20969;-52
2021/05/16 08:32:33;;;;;;;9.23;2.70;;;;;;;22.56;42.78;100050.06;1646519;87;20986;-53
2021/05/16 08:35:00;;;;;;;4.33;2.17;;;;;;;22.60;43.35;100043.36;1646439;86;21106;-52
2021/05/16 08:37:27;;;;;;;10.25;2.27;;;;;;;22.68;43.19;100037.36;1646420;86;20997;-52
2021/05/16 08:39:53;;;;;;;14.58;2.60;;;;;;;22.79;42.04;100038.98;1624443;87;21124;-52
2021/05/16 08:42:20;;;;;;;5.42;2.50;;;;;;;22.84;42.36;100043.50;1646497;87;21070;-52
2021/05/16 08:44:47;;;;;;;5.90;2.87;;;;;;;22.93;41.79;100043.52;1646285;87;20998;-52
2021/05/16 08:47:14;;;;;;;5.37;2.67;;;;;;;23.05;41.28;100046.77;1646627;86;21030;-52
2021/05/16 08:49:41;;;;;;;4.97;2.75;;;;;;;23.08;40.80;100039.02;1646473;87;21638;-52
2021/05/16 08:52:08;;;;;;;6.97;2.70;;;;;;;23.13;40.94;100030.94;1646586;87;21034;-52
2021/05/16 08:54:34;;;;;;;10.72;3.20;;;;;;;23.25;40.79;100034.17;1646654;86;22321;-52
2021/05/16 08:57:01;;;;;;;7.45;2.98;;;;;;;23.37;41.34;100028.42;1646524;86;21029;-52
2021/05/16 08:59:28;;;;;;;4.95;2.92;;;;;;;23.48;40.33;100030.05;1646587;87;21569;-52
2021/05/16 09:01:56;;;;;;;5.72;2.40;;;;;;;23.55;40.72;100023.17;1646453;86;21092;-52
2021/05/16 09:04:34;;;;;;;6.62;2.92;;;;;;;23.68;40.50;100022.41;1646739;86;20978;-52
2021/05/16 09:06:59;;;;;;;4.78;2.85;;;;;;;23.79;40.08;100016.41;1646321;87;21089;-52
2021/05/16 09:09:31;;;;;;;7.53;2.52;;;;;;;23.95;39.97;100015.47;1646621;87;21038;-52
2021/05/16 09:12:01;;;;;;;5.60;3.08;;;;;;;24.07;40.25;100004.06;1646453;87;21046;-52
2021/05/16 09:14:52;;;;;;;10.23;2.42;;;;;;;24.18;38.92;100007.06;1646642;87;21106;-52
2021/05/16 09:17:34;;;;;;;8.93;3.45;;;;;;;24.20;38.19;100004.67;1646386;87;21678;-52
2021/05/16 09:20:10;;;;;;;7.72;3.30;;;;;;;24.27;38.66;99994.96;1646382;87;20958;-52
2021/05/16 09:22:49;;;;;;;5.62;2.70;;;;;;;24.43;37.88;100008.83;1646517;87;22226;-52
2021/05/16 09:25:25;;;;;;;4.83;2.35;;;;;;;24.45;37.83;100000.86;1646603;87;21597;-52
2021/05/16 09:27:57;;;;;;;4.87;2.02;;;;;;;24.45;37.15;99998.05;1646375;87;21635;-52
2021/05/16 09:30:27;;;;;;;6.67;2.55;;;;;;;24.45;37.92;99993.84;1640840;87;21032;-52
2021/05/16 09:33:00;;;;;;;8.40;2.30;;;;;;;24.61;37.69;99997.91;1646742;87;20998;-52
2021/05/16 09:35:44;;;;;;;10.05;3.08;;;;;;;24.73;36.99;99987.02;1646727;87;20989;-53
2021/05/16 09:38:19;;;;;;;6.00;2.25;;;;;;;24.81;36.84;99997.77;1646573;87;21050;-52
2021/05/16 09:40:54;;;;;;;6.47;2.45;;;;;;;24.92;36.53;99993.11;1646498;87;21156;-52
2021/05/16 09:43:26;;;;;;;13.08;2.95;;;;;;;24.96;35.84;99994.54;1646380;87;21021;-52
2021/05/16 09:46:00;;;;;;;6.90;2.72;;;;;;;24.97;36.72;99992.75;1646575;87;21134;-52
2021/05/16 09:48:44;;;;;;;4.20;1.75;;;;;;;25.17;36.21;100002.42;1646575;87;21607;-52
2021/05/16 09:51:18;;;;;;;5.65;1.98;;;;;;;25.24;35.15;99993.28;1646791;87;20962;-52
2021/05/16 09:54:01;;;;;;;2.80;1.87;;;;;;;25.17;35.55;99997.60;1646618;87;21110;-52
2021/05/16 09:56:34;;;;;;;4.87;2.10;;;;;;;25.24;35.65;99991.88;1646567;87;21588;-52
2021/05/16 09:59:06;;;;;;;8.23;2.20;;;;;;;25.34;35.99;99998.23;1646860;87;21660;-52
2021/05/16 10:01:33;;;;;;;7.83;1.90;;;;;;;25.43;35.36;99993.09;1610140;89;22444;-53
2021/05/16 10:04:02;;;;;;;8.53;2.87;;;;;;;25.57;36.23;99991.64;1598189;89;21038;-52
2021/05/16 10:06:29;;;;;;;6.28;3.62;;;;;;;25.82;35.29;99996.91;1598113;89;21096;-52
2021/05/16 10:08:56;;;;;;;7.35;2.55;;;;;;;25.97;34.32;99992.81;1597869;89;21472;-52
2021/05/16 10:11:27;;;;;;;5.50;1.77;;;;;;;26.03;34.44;99989.87;1598154;89;20985;-52
2021/05/16 10:14:11;;;;;;;7.92;1.98;;;;;;;26.15;34.51;99986.75;1598030;89;22219;-52
2021/05/16 10:16:49;;;;;;;6.72;2.00;;;;;;;26.29;33.58;99979.60;1597993;89;20969;-52
2021/05/16 10:19:18;;;;;;;6.58;1.77;;;;;;;26.41;34.06;99975.65;1598189;89;21137;-52
2021/05/16 10:21:45;;;;;;;6.03;2.00;;;;;;;26.63;33.89;99966.73;1598086;89;21629;-52
2021/05/16 10:24:16;;;;;;;6.97;2.30;;;;;;;26.78;33.89;99955.78;1597923;89;21130;-52
2021/05/16 10:26:44;;;;;;;6.47;2.08;;;;;;;26.94;33.92;99961.66;1605489;89;21693;-53
2021/05/16 10:29:15;;;;;;;3.40;2.33;;;;;;;26.96;33.51;99955.03;1607327;89;21132;-52
2021/05/16 10:31:48;;;;;;;6.40;2.40;;;;;;;26.98;33.78;99954.02;1607248;89;21649;-52
2021/05/16 10:34:36;;;;;;;6.80;2.17;;;;;;;26.93;33.21;99955.22;1607155;89;21624;-52
2021/05/16 10:37:03;;;;;;;8.60;2.37;;;;;;;26.89;32.73;99958.05;1602170;89;21227;-52
2021/05/16 10:39:45;;;;;;;10.40;2.87;;;;;;;26.96;33.56;99959.27;1634723;87;21675;-52
2021/05/16 10:42:15;;;;;;;7.75;2.12;;;;;;;27.13;32.64;99952.88;1634952;87;21690;-53
2021/05/16 10:45:15;;;;;;;2.98;1.82;;;;;;;27.17;32.25;99956.51;1609713;87;22187;-54
2021/05/16 10:47:53;;;;;;;4.42;1.92;;;;;;;27.14;32.74;99943.22;1610304;88;21080;-53
2021/05/16 10:50:29;;;;;;;4.28;2.10;;;;;;;27.37;32.86;99940.69;1610069;88;21090;-53
2021/05/16 10:53:09;;;;;;;8.13;3.30;;;;;;;27.60;31.93;99944.53;1607171;89;21499;-53
2021/05/16 10:55:40;;;;;;;5.22;2.02;;;;;;;27.74;32.84;99936.69;1607507;89;20956;-53
2021/05/16 10:58:07;;;;;;;11.45;2.20;;;;;;;28.01;31.99;99936.28;1602372;89;21082;-53
2021/05/16 11:00:38;;;;;;;14.03;2.35;;;;;;;28.21;31.95;99930.41;1634766;87;21056;-53
2021/05/16 11:03:10;;;;;;;4.15;2.20;;;;;;;28.27;31.71;99931.60;1633792;87;21000;-54
2021/05/16 11:05:50;;;;;;;5.70;2.52;;;;;;;28.41;31.59;99930.77;1610193;89;21182;-54
2021/05/16 11:08:23;;;;;;;5.12;1.70;;;;;;;28.46;31.26;99923.89;1610144;89;21019;-53
2021/05/16 11:10:51;;;;;;;4.58;1.55;;;;;;;28.49;30.65;99924.48;1607441;89;21101;-53
2021/05/16 11:13:29;;;;;;;6.25;1.70;;;;;;;28.39;30.48;99918.27;1607168;89;21598;-53
2021/05/16 11:16:09;;;;;;;5.20;1.70;;;;;;;28.32;30.43;99909.81;1607032;88;21070;-53
2021/05/16 11:18:36;;;;;;;8.40;2.17;;;;;;;28.39;31.05;99903.52;1607195;89;21033;-52
2021/05/16 11:21:06;;;;;;;7.67;3.50;;;;;;;28.34;31.23;99900.34;1607153;89;21579;-53
2021/05/16 11:23:35;;;;;;;6.25;2.42;;;;;;;28.20;31.12;99900.56;1606827;88;21116;-54